createdAt,value
2018-10-02T00:02:07.615Z,7.00
2018-10-02T00:05:11.936Z,7.00
2018-10-02T00:08:16.271Z,6.90
2018-10-02T00:11:25.914Z,6.90
2018-10-02T00:14:31.068Z,6.80
2018-10-02T00:17:35.364Z,6.80
2018-10-02T00:20:39.651Z,6.70
2018-10-02T00:23:43.942Z,6.60
2018-10-02T00:26:48.242Z,6.60
2018-10-02T00:29:52.524Z,6.50
2018-10-02T00:32:56.797Z,6.50
2018-10-02T00:36:01.115Z,6.50
2018-10-02T00:39:06.356Z,6.50
2018-10-02T00:42:10.700Z,6.60
2018-10-02T00:45:15.016Z,6.50
2018-10-02T00:48:19.481Z,6.50
2018-10-02T00:51:23.745Z,6.50
2018-10-02T00:54:28.035Z,6.50
2018-10-02T00:57:32.299Z,6.50
2018-10-02T01:00:36.593Z,6.50
2018-10-02T01:03:40.941Z,6.50
2018-10-02T01:06:45.251Z,6.50
2018-10-02T01:09:49.542Z,6.40
2018-10-02T01:12:54.905Z,6.40
2018-10-02T01:15:59.231Z,6.40
2018-10-02T01:19:03.474Z,6.40
2018-10-02T01:22:07.808Z,6.30
2018-10-02T01:25:12.094Z,6.20
2018-10-02T01:28:16.367Z,6.20
2018-10-02T01:31:20.652Z,6.20
2018-10-02T01:34:24.947Z,6.20
2018-10-02T01:37:29.238Z,6.20
2018-10-02T01:40:33.553Z,6.20
2018-10-02T01:43:37.828Z,6.20
2018-10-02T01:46:42.134Z,6.20
2018-10-02T01:49:46.454Z,6.20
2018-10-02T01:52:50.724Z,6.20
2018-10-02T01:55:55.018Z,6.20
2018-10-02T01:58:59.288Z,6.20
2018-10-02T02:02:03.592Z,6.30
2018-10-02T02:05:08.243Z,6.30
2018-10-02T02:08:12.535Z,6.30
2018-10-02T02:11:16.828Z,6.30
2018-10-02T02:14:21.192Z,6.40
2018-10-02T02:17:25.471Z,6.40
2018-10-02T02:20:29.771Z,6.40
2018-10-02T02:23:34.056Z,6.40
2018-10-02T02:26:38.356Z,6.50
2018-10-02T02:29:42.655Z,6.50
2018-10-02T02:32:46.940Z,6.50
2018-10-02T02:35:51.220Z,6.50
2018-10-02T02:38:55.512Z,6.60
2018-10-02T02:41:59.840Z,6.60
2018-10-02T02:45:04.081Z,6.60
2018-10-02T02:48:13.769Z,6.60
2018-10-02T02:51:19.919Z,6.60
2018-10-02T02:54:24.228Z,6.60
2018-10-02T02:57:28.492Z,6.60
2018-10-02T03:00:32.797Z,6.70
2018-10-02T03:03:37.056Z,6.70
2018-10-02T03:06:41.367Z,6.70
2018-10-02T03:09:45.679Z,6.70
2018-10-02T03:12:49.958Z,6.80
2018-10-02T03:15:54.273Z,6.80
2018-10-02T03:18:58.605Z,6.80
2018-10-02T03:22:02.920Z,6.80
2018-10-02T03:25:07.189Z,6.90
2018-10-02T03:28:11.506Z,6.90
2018-10-02T03:31:15.804Z,6.90
2018-10-02T03:34:20.135Z,6.90
2018-10-02T03:37:24.416Z,6.80
2018-10-02T03:40:28.745Z,6.90
2018-10-02T03:43:33.035Z,6.90
2018-10-02T03:46:37.333Z,6.90
2018-10-02T03:49:41.664Z,6.90
2018-10-02T03:52:45.927Z,6.90
2018-10-02T03:55:50.229Z,6.90
2018-10-02T03:58:54.501Z,6.90
2018-10-02T04:01:58.781Z,7.00
2018-10-02T04:05:03.070Z,6.90
2018-10-02T04:08:07.488Z,7.00
2018-10-02T04:11:11.737Z,6.90
2018-10-02T04:14:16.060Z,7.00
2018-10-02T04:17:20.357Z,7.00
2018-10-02T04:20:24.644Z,7.00
2018-10-02T04:23:28.929Z,7.00
2018-10-02T04:26:33.848Z,7.00
2018-10-02T04:29:38.141Z,7.00
2018-10-02T04:32:42.476Z,7.00
2018-10-02T04:35:46.808Z,7.00
2018-10-02T04:38:51.140Z,7.00
2018-10-02T04:41:55.431Z,7.00
2018-10-02T04:44:59.741Z,7.00
2018-10-02T04:48:03.980Z,7.00
2018-10-02T04:51:08.267Z,7.10
2018-10-02T04:54:12.564Z,7.00
2018-10-02T04:57:16.824Z,7.10
2018-10-02T05:00:21.091Z,7.10
2018-10-02T05:03:25.335Z,7.10
2018-10-02T05:06:29.613Z,7.00
2018-10-02T05:09:33.905Z,7.10
2018-10-02T05:12:38.202Z,7.00
2018-10-02T05:15:42.542Z,7.00
2018-10-02T05:18:46.846Z,7.10
2018-10-02T05:21:51.107Z,7.10
2018-10-02T05:24:55.348Z,7.10
2018-10-02T05:27:59.619Z,7.10
2018-10-02T05:31:04.333Z,7.20
2018-10-02T05:34:08.601Z,7.30
2018-10-02T05:37:13.027Z,7.40
2018-10-02T05:40:17.258Z,7.50
2018-10-02T05:43:21.546Z,7.60
2018-10-02T05:46:25.841Z,7.70
2018-10-02T05:49:30.093Z,7.80
2018-10-02T05:52:34.373Z,7.90
2018-10-02T05:55:38.629Z,7.90
2018-10-02T05:58:42.936Z,8.00
2018-10-02T06:01:47.274Z,8.00
2018-10-02T06:04:51.521Z,8.10
2018-10-02T06:07:57.385Z,8.10
2018-10-02T06:11:02.822Z,8.10
2018-10-02T06:14:07.353Z,8.10
2018-10-02T06:17:11.615Z,8.10
2018-10-02T06:20:15.876Z,8.10
2018-10-02T06:23:20.141Z,8.10
2018-10-02T06:26:24.438Z,8.10
2018-10-02T06:29:28.712Z,8.10
2018-10-02T06:32:33.009Z,8.20
2018-10-02T06:35:37.288Z,8.20
2018-10-02T06:38:41.688Z,8.20
2018-10-02T06:41:45.858Z,8.30
2018-10-02T06:44:50.149Z,8.30
2018-10-02T06:47:54.410Z,8.30
2018-10-02T06:50:58.727Z,8.30
2018-10-02T06:54:03.052Z,8.40
2018-10-02T06:57:07.480Z,8.40
2018-10-02T07:00:11.725Z,8.50
2018-10-02T07:03:16.186Z,8.50
2018-10-02T07:06:20.445Z,8.60
2018-10-02T07:09:24.736Z,8.70
2018-10-02T07:12:29.045Z,8.70
2018-10-02T07:15:33.314Z,8.70
2018-10-02T07:18:37.612Z,8.80
2018-10-02T07:21:41.878Z,8.80
2018-10-02T07:24:46.188Z,8.80
2018-10-02T07:27:50.629Z,8.80
2018-10-02T07:30:54.826Z,8.80
2018-10-02T07:33:59.111Z,8.80
2018-10-02T07:37:03.399Z,8.80
2018-10-02T07:40:07.702Z,8.80
2018-10-02T07:43:11.997Z,8.80
2018-10-02T07:46:16.284Z,8.70
2018-10-02T07:49:20.574Z,8.70
2018-10-02T07:52:24.907Z,8.70
2018-10-02T07:55:29.202Z,8.70
2018-10-02T07:58:33.533Z,8.60
2018-10-02T08:01:37.828Z,8.60
2018-10-02T08:04:42.209Z,8.60
2018-10-02T08:07:46.487Z,8.60
2018-10-02T08:10:51.972Z,8.60
2018-10-02T08:13:56.380Z,8.60
2018-10-02T08:17:00.639Z,8.60
2018-10-02T08:20:05.037Z,8.60
2018-10-02T08:23:09.300Z,8.60
2018-10-02T08:26:13.597Z,8.60
2018-10-02T08:29:17.894Z,8.60
2018-10-02T08:32:22.189Z,8.60
2018-10-02T08:35:26.513Z,8.60
2018-10-02T08:38:30.763Z,8.60
2018-10-02T08:41:35.058Z,8.60
2018-10-02T08:44:39.441Z,8.60
2018-10-02T08:47:43.652Z,8.70
2018-10-02T08:50:47.928Z,8.70
2018-10-02T08:53:52.270Z,8.70
2018-10-02T08:56:56.516Z,8.70
2018-10-02T09:00:00.772Z,8.80
2018-10-02T09:03:05.120Z,8.80
2018-10-02T09:06:09.365Z,8.80
2018-10-02T09:09:14.172Z,8.70
2018-10-02T09:12:18.439Z,8.70
2018-10-02T09:15:22.726Z,8.70
2018-10-02T09:18:27.097Z,8.70
2018-10-02T09:21:31.416Z,8.70
2018-10-02T09:24:35.722Z,8.70
2018-10-02T09:27:40.070Z,8.80
2018-10-02T09:30:49.554Z,8.80
2018-10-02T09:33:59.209Z,8.80
2018-10-02T09:38:10.282Z,8.90
2018-10-02T09:41:19.813Z,8.90
2018-10-02T09:44:24.129Z,9.00
2018-10-02T09:47:28.396Z,9.10
2018-10-02T09:50:32.716Z,9.20
2018-10-02T09:53:36.996Z,9.30
2018-10-02T09:56:42.689Z,9.40
2018-10-02T09:59:46.959Z,9.40
2018-10-02T10:02:56.272Z,9.60
2018-10-02T10:06:00.502Z,9.60
2018-10-02T10:09:05.749Z,9.60
2018-10-02T10:12:10.049Z,9.70
2018-10-02T10:15:14.317Z,9.70
2018-10-02T10:18:18.999Z,9.70
2018-10-02T10:21:23.284Z,9.80
2018-10-02T10:24:27.565Z,9.90
2018-10-02T10:27:31.827Z,10.00
2018-10-02T10:30:36.125Z,10.00
2018-10-02T10:33:40.416Z,10.10
2018-10-02T10:36:44.706Z,10.10
2018-10-02T10:39:49.040Z,10.20
2018-10-02T10:42:53.280Z,10.30
2018-10-02T10:45:57.519Z,10.30
2018-10-02T10:49:01.833Z,10.40
2018-10-02T10:52:06.107Z,10.50
2018-10-02T10:55:29.998Z,10.60
2018-10-02T10:58:34.306Z,10.70
2018-10-02T11:01:38.563Z,10.90
2018-10-02T11:04:42.924Z,11.10
2018-10-02T11:07:47.296Z,11.30
2018-10-02T11:10:51.577Z,11.50
2018-10-02T11:13:55.918Z,11.80
2018-10-02T11:17:00.104Z,12.00
2018-10-02T11:20:05.176Z,12.10
2018-10-02T11:23:09.494Z,12.20
2018-10-02T11:26:13.773Z,12.20
2018-10-02T11:29:18.062Z,12.30
2018-10-02T11:32:22.321Z,12.30
2018-10-02T11:35:26.769Z,12.40
2018-10-02T11:38:31.004Z,12.40
2018-10-02T11:41:35.304Z,12.50
2018-10-02T11:44:39.650Z,12.50
2018-10-02T11:47:43.880Z,12.50
2018-10-02T11:50:48.188Z,12.70
2018-10-02T11:53:52.429Z,12.90
2018-10-02T11:56:56.752Z,13.00
2018-10-02T12:00:01.000Z,13.10
2018-10-02T12:03:05.444Z,13.10
2018-10-02T12:06:10.240Z,13.20
2018-10-02T12:09:14.605Z,13.20
2018-10-02T12:12:18.879Z,13.20
2018-10-02T12:15:23.789Z,13.40
2018-10-02T12:18:28.033Z,13.40
2018-10-02T12:21:32.483Z,13.40
2018-10-02T12:24:36.800Z,13.30
2018-10-02T12:27:41.240Z,13.30
2018-10-02T12:30:45.636Z,13.30
2018-10-02T12:33:50.584Z,13.30
2018-10-02T12:36:54.852Z,13.40
2018-10-02T12:39:59.150Z,13.30
2018-10-02T12:43:03.396Z,13.20
2018-10-02T12:46:07.779Z,13.10
2018-10-02T12:49:12.049Z,12.90
2018-10-02T12:52:16.491Z,12.90
2018-10-02T12:55:20.768Z,12.80
2018-10-02T12:58:25.016Z,12.80
2018-10-02T13:01:29.294Z,12.90
2018-10-02T13:04:33.536Z,12.90
2018-10-02T13:07:37.790Z,12.90
2018-10-02T13:10:42.069Z,12.90
2018-10-02T13:13:46.308Z,12.90
2018-10-02T13:16:50.600Z,12.90
2018-10-02T13:19:54.917Z,13.00
2018-10-02T13:22:59.148Z,13.00
2018-10-02T13:26:03.408Z,13.10
2018-10-02T13:29:07.834Z,13.20
2018-10-02T13:32:12.113Z,13.10
2018-10-02T13:35:16.404Z,13.00
2018-10-02T13:38:20.676Z,12.90
2018-10-02T13:41:24.962Z,12.90
2018-10-02T13:44:29.209Z,12.90
2018-10-02T13:47:34.079Z,12.90
2018-10-02T13:50:38.367Z,12.90
2018-10-02T13:53:42.652Z,12.80
2018-10-02T13:56:46.929Z,12.90
2018-10-02T13:59:51.455Z,12.90
2018-10-02T14:02:55.722Z,12.90
2018-10-02T14:06:00.027Z,12.90
2018-10-02T14:09:05.675Z,12.90
2018-10-02T14:12:10.037Z,13.00
2018-10-02T14:15:14.381Z,13.00
2018-10-02T14:18:18.629Z,12.80
2018-10-02T14:21:22.904Z,12.70
2018-10-02T14:24:27.196Z,12.70
2018-10-02T14:27:31.454Z,12.70
2018-10-02T14:30:35.762Z,12.70
2018-10-02T14:33:40.054Z,12.80
2018-10-02T14:36:44.344Z,12.80
2018-10-02T14:39:48.640Z,12.90
2018-10-02T14:42:52.914Z,12.90
2018-10-02T14:45:57.189Z,12.90
2018-10-02T14:49:01.461Z,12.80
2018-10-02T14:52:05.779Z,12.70
2018-10-02T14:55:10.134Z,12.70
2018-10-02T14:58:14.404Z,12.60
2018-10-02T15:01:18.685Z,12.60
2018-10-02T15:04:22.981Z,12.50
2018-10-02T15:07:27.272Z,12.30
2018-10-02T15:10:31.531Z,12.20
2018-10-02T15:13:35.796Z,12.20
2018-10-02T15:16:40.077Z,12.20
2018-10-02T15:19:44.824Z,12.00
2018-10-02T15:22:49.123Z,12.00
2018-10-02T15:25:53.392Z,11.80
2018-10-02T15:28:57.680Z,11.60
2018-10-02T15:32:01.974Z,11.60
2018-10-02T15:35:06.277Z,11.60
2018-10-02T15:38:10.604Z,11.50
2018-10-02T15:41:14.893Z,11.40
2018-10-02T15:44:19.159Z,11.40
2018-10-02T15:47:23.464Z,11.40
2018-10-02T15:50:27.728Z,11.50
2018-10-02T15:53:32.017Z,11.60
2018-10-02T15:56:36.306Z,11.70
2018-10-02T15:59:40.590Z,11.70
2018-10-02T16:02:44.882Z,11.70
2018-10-02T16:05:49.179Z,11.70
2018-10-02T16:08:53.447Z,11.70
2018-10-02T16:11:57.702Z,11.60
2018-10-02T16:15:02.058Z,11.60
2018-10-02T16:18:06.476Z,11.50
2018-10-02T16:21:10.669Z,11.60
2018-10-02T16:24:14.930Z,11.60
2018-10-02T16:27:19.183Z,11.70
2018-10-02T16:30:23.508Z,11.50
2018-10-02T16:33:27.749Z,11.50
2018-10-02T16:36:32.008Z,11.40
2018-10-02T16:39:36.281Z,11.40
2018-10-02T16:42:40.533Z,11.30
2018-10-02T16:45:44.805Z,11.20
2018-10-02T16:48:49.082Z,11.20
2018-10-02T16:51:53.370Z,11.10
2018-10-02T16:54:57.668Z,11.10
2018-10-02T16:58:01.935Z,11.10
2018-10-02T17:01:06.228Z,11.00
2018-10-02T17:04:10.645Z,11.10
2018-10-02T17:07:14.845Z,11.10
2018-10-02T17:10:19.087Z,11.10
2018-10-02T17:13:23.341Z,11.00
2018-10-02T17:16:27.788Z,10.80
2018-10-02T17:19:32.061Z,10.70
2018-10-02T17:22:36.336Z,10.40
2018-10-02T17:25:40.585Z,10.30
2018-10-02T17:28:44.890Z,10.20
2018-10-02T17:31:49.157Z,10.10
2018-10-02T17:34:53.404Z,10.10
2018-10-02T17:37:57.643Z,10.10
2018-10-02T17:41:01.935Z,10.10
2018-10-02T17:44:06.161Z,10.10
2018-10-02T17:47:10.753Z,10.10
2018-10-02T17:50:15.041Z,10.20
2018-10-02T17:53:19.332Z,10.20
2018-10-02T17:56:23.618Z,10.20
2018-10-02T17:59:27.887Z,10.20
2018-10-02T18:02:32.156Z,10.20
2018-10-02T18:05:36.774Z,10.20
2018-10-02T18:08:41.106Z,10.10
2018-10-02T18:11:45.381Z,10.10
2018-10-02T18:14:49.699Z,10.10
2018-10-02T18:17:53.952Z,10.10
2018-10-02T18:20:58.249Z,10.10
2018-10-02T18:24:02.558Z,10.10
2018-10-02T18:27:06.824Z,10.10
2018-10-02T18:30:11.108Z,10.00
2018-10-02T18:33:15.390Z,10.00
2018-10-02T18:36:19.659Z,10.00
2018-10-02T18:39:23.973Z,10.00
2018-10-02T18:42:28.348Z,10.00
2018-10-02T18:45:32.698Z,10.10
2018-10-02T18:48:36.986Z,10.20
2018-10-02T18:51:43.822Z,10.30
2018-10-02T18:54:48.421Z,10.40
2018-10-02T18:57:55.938Z,10.50
2018-10-02T19:01:00.720Z,10.60
2018-10-02T19:04:04.982Z,10.50
2018-10-02T19:07:09.913Z,10.40
2018-10-02T19:10:15.170Z,10.10
2018-10-02T19:13:19.600Z,9.80
2018-10-02T19:16:28.697Z,9.70
2018-10-02T19:19:38.157Z,9.60
2018-10-02T19:22:42.581Z,9.50
2018-10-02T19:25:52.286Z,9.40
2018-10-02T19:28:57.129Z,9.40
2018-10-02T19:32:10.374Z,9.30
2018-10-02T19:35:14.726Z,9.40
2018-10-02T19:39:22.984Z,9.40
2018-10-02T19:42:27.648Z,9.50
2018-10-02T19:45:37.316Z,9.50
2018-10-02T19:48:41.765Z,9.50
2018-10-02T19:51:51.293Z,9.50
2018-10-02T19:54:56.105Z,9.40
2018-10-02T19:58:00.531Z,9.40
2018-10-02T20:01:05.580Z,9.40
2018-10-02T20:04:10.564Z,9.40
2018-10-02T20:07:15.320Z,9.50
2018-10-02T20:10:19.790Z,9.40
2018-10-02T20:13:25.103Z,9.50
2018-10-02T20:16:29.434Z,9.60
2018-10-02T20:19:34.408Z,9.60
2018-10-02T20:22:38.690Z,9.60
2018-10-02T20:25:43.493Z,9.60
2018-10-02T20:28:48.745Z,9.70
2018-10-02T20:31:54.007Z,9.70
2018-10-02T20:34:58.884Z,9.70
2018-10-02T20:38:05.564Z,9.60
2018-10-02T20:41:11.174Z,9.60
2018-10-02T20:44:16.526Z,9.60
2018-10-02T20:47:20.902Z,9.50
2018-10-02T20:50:26.113Z,9.60
2018-10-02T20:53:30.987Z,9.50
2018-10-02T20:56:35.226Z,9.60
2018-10-02T20:59:39.770Z,9.60
2018-10-02T21:02:46.564Z,9.60
2018-10-02T21:05:50.925Z,9.60
2018-10-02T21:08:57.825Z,9.60
2018-10-02T21:12:02.501Z,9.70
2018-10-02T21:15:07.282Z,9.70
2018-10-02T21:18:12.321Z,9.60
2018-10-02T21:21:17.571Z,9.50
2018-10-02T21:24:21.944Z,9.50
2018-10-02T21:27:26.800Z,9.50
2018-10-02T21:30:31.589Z,9.50
2018-10-02T21:33:36.541Z,9.50
2018-10-02T21:36:40.863Z,9.50
2018-10-02T21:39:45.453Z,9.50
2018-10-02T21:42:49.902Z,9.50
2018-10-02T21:45:54.608Z,9.40
2018-10-02T21:48:59.826Z,9.30
2018-10-02T21:52:04.300Z,9.30
2018-10-02T21:55:09.576Z,9.30
2018-10-02T21:58:14.593Z,9.30
2018-10-02T22:01:19.057Z,9.30
2018-10-02T22:04:23.976Z,9.30
2018-10-02T22:07:28.605Z,9.30
2018-10-02T22:10:33.079Z,9.30
2018-10-02T22:13:38.823Z,9.30
2018-10-02T22:16:43.867Z,9.30
2018-10-02T22:19:48.698Z,9.30
2018-10-02T22:22:53.844Z,9.40
2018-10-02T22:25:59.738Z,9.50
2018-10-02T22:29:04.677Z,9.50
2018-10-02T22:32:09.401Z,9.50
2018-10-02T22:35:13.713Z,9.60
2018-10-02T22:38:17.973Z,9.70
2018-10-02T22:41:22.379Z,9.80
2018-10-02T22:44:26.888Z,9.90
2018-10-02T22:47:31.985Z,10.00
2018-10-02T22:50:36.344Z,10.00
2018-10-02T22:53:40.740Z,10.10
2018-10-02T22:56:45.053Z,10.20
2018-10-02T22:59:50.411Z,10.10
2018-10-02T23:02:55.016Z,10.20
2018-10-02T23:05:59.412Z,10.10
2018-10-02T23:09:04.137Z,10.20
2018-10-02T23:12:09.725Z,10.20
2018-10-02T23:15:13.989Z,10.30
2018-10-02T23:18:18.381Z,10.30
2018-10-02T23:21:22.689Z,10.30
2018-10-02T23:24:26.981Z,10.30
2018-10-02T23:27:31.315Z,10.30
2018-10-02T23:30:35.689Z,10.20
2018-10-02T23:33:39.954Z,10.20
2018-10-02T23:36:44.242Z,10.20
2018-10-02T23:39:48.648Z,10.20
2018-10-02T23:42:52.950Z,10.20
2018-10-02T23:45:57.284Z,10.30
2018-10-02T23:49:01.573Z,10.40
2018-10-02T23:52:05.836Z,10.40
2018-10-02T23:55:10.148Z,10.30
2018-10-02T23:58:14.453Z,10.10
